createdAt,value
2018-02-11T00:01:40.192Z,11.08
2018-02-11T00:04:08.277Z,10.94
2018-02-11T00:06:35.818Z,10.91
2018-02-11T00:09:03.808Z,10.88
2018-02-11T00:11:32.208Z,10.75
2018-02-11T00:14:00.413Z,10.76
2018-02-11T00:16:27.952Z,10.79
2018-02-11T00:18:55.519Z,10.84
2018-02-11T00:21:23.100Z,10.82
2018-02-11T00:23:50.622Z,10.62
2018-02-11T00:26:18.308Z,10.64
2018-02-11T00:28:45.902Z,10.53
2018-02-11T00:31:13.479Z,10.56
2018-02-11T00:33:41.292Z,10.47
2018-02-11T00:36:08.827Z,10.41
2018-02-11T00:38:36.408Z,10.38
2018-02-11T00:41:04.462Z,10.47
2018-02-11T00:43:33.526Z,10.51
2018-02-11T00:46:01.517Z,10.56
2018-02-11T00:48:29.078Z,10.62
2018-02-11T00:50:56.872Z,10.64
2018-02-11T00:53:24.398Z,10.59
2018-02-11T00:55:51.971Z,10.51
2018-02-11T00:58:19.503Z,10.48
2018-02-11T01:00:47.074Z,10.47
2018-02-11T01:03:14.639Z,10.45
2018-02-11T01:05:42.219Z,10.11
2018-02-11T01:08:09.755Z,10.00
2018-02-11T01:10:37.322Z,9.82
2018-02-11T01:13:04.846Z,9.80
2018-02-11T01:15:32.402Z,9.52
2018-02-11T01:17:59.921Z,9.40
2018-02-11T01:20:27.515Z,9.47
2018-02-11T01:22:55.039Z,9.51
2018-02-11T01:25:22.571Z,9.59
2018-02-11T01:27:50.332Z,9.71
2018-02-11T01:30:17.862Z,9.80
2018-02-11T01:32:45.442Z,9.71
2018-02-11T01:35:12.973Z,9.69
2018-02-11T01:37:40.507Z,9.64
2018-02-11T01:40:08.087Z,9.64
2018-02-11T01:42:36.075Z,9.70
2018-02-11T01:45:03.610Z,9.69
2018-02-11T01:47:31.152Z,9.64
2018-02-11T01:50:10.334Z,9.58
2018-02-11T01:52:37.858Z,9.53
2018-02-11T01:55:05.431Z,9.60
2018-02-11T01:57:33.218Z,9.69
2018-02-11T02:00:00.801Z,9.78
2018-02-11T02:02:28.819Z,9.86
2018-02-11T02:04:56.346Z,9.87
2018-02-11T02:07:23.878Z,9.91
2018-02-11T02:09:51.437Z,9.89
2018-02-11T02:12:19.410Z,9.94
2018-02-11T02:14:47.274Z,9.99
2018-02-11T02:17:14.801Z,10.08
2018-02-11T02:19:42.335Z,10.10
2018-02-11T02:22:09.907Z,10.15
2018-02-11T02:24:37.473Z,10.14
2018-02-11T02:27:05.069Z,10.18
2018-02-11T02:29:32.602Z,10.22
2018-02-11T02:32:00.142Z,10.23
2018-02-11T02:34:27.716Z,10.24
2018-02-11T02:36:55.242Z,10.25
2018-02-11T02:39:23.422Z,10.12
2018-02-11T02:41:50.999Z,10.11
2018-02-11T02:44:19.013Z,10.14
2018-02-11T02:46:46.545Z,10.04
2018-02-11T02:49:14.109Z,9.93
2018-02-11T02:51:41.646Z,9.88
2018-02-11T02:54:09.388Z,9.89
2018-02-11T02:56:36.929Z,9.36
2018-02-11T02:59:04.481Z,9.09
2018-02-11T03:01:32.052Z,9.20
2018-02-11T03:03:59.587Z,9.28
2018-02-11T03:06:27.285Z,8.95
2018-02-11T03:08:54.809Z,8.91
2018-02-11T03:11:22.369Z,8.64
2018-02-11T03:13:49.896Z,7.76
2018-02-11T03:16:17.470Z,7.38
2018-02-11T03:18:44.998Z,7.39
2018-02-11T03:21:12.697Z,7.31
2018-02-11T03:23:40.218Z,6.88
2018-02-11T03:26:07.773Z,6.54
2018-02-11T03:28:35.893Z,6.64
2018-02-11T03:31:03.883Z,6.29
2018-02-11T03:33:31.418Z,6.18
2018-02-11T03:35:58.995Z,5.76
2018-02-11T03:38:26.563Z,5.20
2018-02-11T03:40:54.155Z,4.92
2018-02-11T03:43:21.722Z,4.89
2018-02-11T03:45:49.425Z,4.87
2018-02-11T03:48:16.968Z,4.85
2018-02-11T03:50:44.490Z,4.75
2018-02-11T03:53:12.664Z,4.71
2018-02-11T03:55:40.189Z,4.60
2018-02-11T03:58:07.722Z,4.62
2018-02-11T04:00:35.303Z,4.59
2018-02-11T04:03:02.848Z,4.71
2018-02-11T04:05:30.418Z,4.84
2018-02-11T04:07:58.012Z,4.94
2018-02-11T04:10:25.541Z,4.97
2018-02-11T04:12:53.135Z,4.99
2018-02-11T04:15:20.658Z,4.86
2018-02-11T04:17:48.810Z,4.85
2018-02-11T04:20:16.850Z,4.82
2018-02-11T04:22:44.393Z,4.75
2018-02-11T04:25:11.962Z,4.73
2018-02-11T04:27:39.507Z,4.74
2018-02-11T04:32:34.194Z,4.85
2018-02-11T04:35:01.888Z,4.78
2018-02-11T04:37:29.409Z,4.55
2018-02-11T04:39:56.937Z,4.65
2018-02-11T04:42:24.549Z,4.58
2018-02-11T04:44:52.074Z,4.63
2018-02-11T04:47:19.981Z,4.63
2018-02-11T04:49:47.653Z,4.71
2018-02-11T04:52:15.213Z,4.69
2018-02-11T04:54:42.777Z,4.64
2018-02-11T04:57:10.317Z,4.85
2018-02-11T04:59:37.847Z,4.83
2018-02-11T05:02:05.409Z,4.91
2018-02-11T05:04:32.947Z,5.11
2018-02-11T05:07:00.523Z,5.13
2018-02-11T05:09:28.072Z,5.02
2018-02-11T05:11:55.654Z,4.87
2018-02-11T05:14:23.195Z,4.83
2018-02-11T05:16:51.291Z,4.80
2018-02-11T05:19:18.821Z,4.88
2018-02-11T05:21:46.382Z,4.97
2018-02-11T05:24:13.923Z,5.03
2018-02-11T05:26:41.929Z,5.06
2018-02-11T05:29:09.742Z,4.87
2018-02-11T05:31:37.318Z,5.10
2018-02-11T05:34:04.849Z,5.62
2018-02-11T05:36:32.615Z,5.36
2018-02-11T05:39:01.151Z,5.03
2018-02-11T05:41:28.944Z,5.02
2018-02-11T05:43:56.760Z,5.09
2018-02-11T05:46:24.285Z,5.10
2018-02-11T05:48:51.814Z,5.13
2018-02-11T05:51:19.382Z,5.23
2018-02-11T05:53:46.949Z,5.23
2018-02-11T05:56:14.536Z,5.42
2018-02-11T05:58:42.111Z,5.24
2018-02-11T06:01:09.635Z,5.31
2018-02-11T06:03:38.194Z,5.10
2018-02-11T06:06:05.770Z,4.79
2018-02-11T06:08:33.297Z,4.97
2018-02-11T06:11:01.321Z,5.10
2018-02-11T06:13:28.857Z,5.46
2018-02-11T06:15:56.447Z,5.68
2018-02-11T06:18:23.989Z,5.57
2018-02-11T06:20:52.014Z,5.32
2018-02-11T06:23:20.358Z,5.17
2018-02-11T06:25:47.885Z,5.08
2018-02-11T06:28:15.860Z,5.56
2018-02-11T06:30:43.395Z,5.90
2018-02-11T06:33:10.937Z,5.70
2018-02-11T06:35:38.509Z,5.37
2018-02-11T06:38:06.979Z,5.01
2018-02-11T06:40:34.549Z,4.94
2018-02-11T06:43:02.126Z,5.09
2018-02-11T06:45:29.729Z,5.28
2018-02-11T06:47:57.289Z,5.07
2018-02-11T06:50:24.826Z,4.85
2018-02-11T06:52:52.398Z,4.86
2018-02-11T06:55:20.777Z,4.88
2018-02-11T06:57:48.626Z,4.87
2018-02-11T07:00:16.199Z,4.99
2018-02-11T07:02:43.886Z,4.92
2018-02-11T07:05:11.462Z,4.81
2018-02-11T07:07:40.505Z,4.73
2018-02-11T07:10:08.113Z,4.81
2018-02-11T07:12:36.228Z,4.76
2018-02-11T07:15:04.284Z,4.88
2018-02-11T07:17:31.942Z,4.80
2018-02-11T07:19:59.479Z,4.92
2018-02-11T07:22:27.014Z,5.05
2018-02-11T07:24:54.613Z,4.97
2018-02-11T07:27:22.371Z,4.90
2018-02-11T07:29:49.955Z,4.95
2018-02-11T07:32:17.481Z,5.00
2018-02-11T07:34:45.425Z,5.10
2018-02-11T07:37:13.540Z,5.31
2018-02-11T07:39:41.242Z,5.26
2018-02-11T07:42:08.906Z,5.25
2018-02-11T07:44:36.736Z,5.36
2018-02-11T07:47:04.310Z,5.46
2018-02-11T07:49:31.883Z,5.43
2018-02-11T07:51:59.454Z,5.29
2018-02-11T07:54:27.035Z,5.32
2018-02-11T07:56:54.574Z,5.38
2018-02-11T07:59:23.263Z,5.42
2018-02-11T08:01:50.794Z,5.56
2018-02-11T08:04:18.374Z,5.62
2018-02-11T08:06:45.950Z,5.62
2018-02-11T08:09:13.498Z,5.46
2018-02-11T08:11:41.482Z,5.37
2018-02-11T08:14:09.023Z,5.47
2018-02-11T08:16:37.493Z,5.40
2018-02-11T08:19:05.066Z,5.42
2018-02-11T08:21:32.609Z,5.46
2018-02-11T08:24:01.462Z,5.44
2018-02-11T08:26:29.558Z,5.60
2018-02-11T08:28:57.497Z,5.80
2018-02-11T08:31:25.039Z,5.62
2018-02-11T08:33:52.922Z,5.96
2018-02-11T08:36:20.661Z,5.86
2018-02-11T08:38:48.203Z,5.70
2018-02-11T08:41:16.041Z,5.67
2018-02-11T08:43:43.932Z,5.77
2018-02-11T08:46:11.469Z,5.77
2018-02-11T08:48:39.002Z,5.91
2018-02-11T08:51:06.595Z,6.08
2018-02-11T08:53:34.465Z,6.09
2018-02-11T08:56:02.330Z,6.12
2018-02-11T08:58:29.911Z,5.97
2018-02-11T09:00:57.437Z,5.79
2018-02-11T09:03:25.944Z,5.82
2018-02-11T09:05:53.610Z,6.23
2018-02-11T09:08:21.849Z,6.37
2018-02-11T09:10:50.107Z,6.36
2018-02-11T09:13:18.088Z,6.18
2018-02-11T09:15:45.882Z,6.05
2018-02-11T09:18:13.743Z,6.07
2018-02-11T09:20:42.245Z,5.99
2018-02-11T09:23:10.239Z,6.04
2018-02-11T09:25:38.103Z,6.41
2018-02-11T09:28:05.893Z,6.61
2018-02-11T09:30:34.595Z,6.61
2018-02-11T09:33:02.594Z,6.41
2018-02-11T09:35:30.165Z,6.35
2018-02-11T09:37:58.058Z,6.30
2018-02-11T09:40:26.275Z,6.16
2018-02-11T09:42:53.805Z,6.31
2018-02-11T09:45:21.379Z,6.42
2018-02-11T09:47:48.921Z,6.43
2018-02-11T09:50:17.016Z,6.41
2018-02-11T09:52:44.586Z,6.58
2018-02-11T09:55:12.171Z,6.44
2018-02-11T09:57:40.416Z,6.40
2018-02-11T10:00:08.004Z,6.51
2018-02-11T10:02:35.573Z,6.40
2018-02-11T10:05:03.220Z,6.33
2018-02-11T10:07:30.786Z,6.23
2018-02-11T10:09:58.370Z,6.28
2018-02-11T10:12:26.051Z,6.30
2018-02-11T10:14:53.664Z,6.18
2018-02-11T10:17:21.205Z,6.39
2018-02-11T10:19:48.818Z,6.49
2018-02-11T10:22:16.418Z,6.34
2018-02-11T10:24:44.003Z,6.39
2018-02-11T10:27:11.558Z,6.33
2018-02-11T10:29:39.770Z,6.32
2018-02-11T10:32:07.304Z,6.47
2018-02-11T10:34:34.917Z,6.56
2018-02-11T10:37:02.500Z,6.56
2018-02-11T10:39:30.039Z,6.57
2018-02-11T10:41:57.626Z,6.48
2018-02-11T10:44:25.544Z,6.39
2018-02-11T10:46:53.119Z,6.41
2018-02-11T10:49:21.109Z,6.37
2018-02-11T10:51:48.699Z,6.51
2018-02-11T10:54:16.328Z,6.36
2018-02-11T10:56:44.312Z,6.59
2018-02-11T10:59:12.022Z,6.82
2018-02-11T11:01:39.558Z,6.48
2018-02-11T11:04:07.185Z,6.50
2018-02-11T11:06:35.540Z,6.68
2018-02-11T11:09:03.105Z,6.54
2018-02-11T11:11:30.858Z,6.62
2018-02-11T11:13:58.450Z,6.65
2018-02-11T11:16:26.206Z,6.62
2018-02-11T11:18:54.688Z,6.80
2018-02-11T11:21:22.267Z,6.83
2018-02-11T11:23:49.852Z,6.88
2018-02-11T11:26:18.172Z,6.73
2018-02-11T11:28:46.039Z,6.80
2018-02-11T11:31:13.800Z,6.77
2018-02-11T11:33:41.387Z,6.68
2018-02-11T11:36:09.588Z,6.48
2018-02-11T11:38:38.294Z,6.45
2018-02-11T11:41:05.831Z,6.64
2018-02-11T11:43:37.290Z,6.58
2018-02-11T11:46:05.052Z,6.81
2018-02-11T11:48:32.631Z,6.49
2018-02-11T11:51:00.226Z,6.61
2018-02-11T11:53:30.838Z,6.65
2018-02-11T11:55:58.586Z,6.48
2018-02-11T11:58:26.316Z,6.57
2018-02-11T12:00:54.821Z,6.72
2018-02-11T12:03:23.873Z,6.81
2018-02-11T12:05:51.457Z,6.78
2018-02-11T12:08:18.995Z,6.63
2018-02-11T12:10:46.573Z,6.73
2018-02-11T12:13:14.987Z,6.73
2018-02-11T12:15:42.715Z,6.62
2018-02-11T12:18:10.318Z,6.88
2018-02-11T12:20:38.822Z,7.20
2018-02-11T12:23:06.640Z,7.21
2018-02-11T12:25:34.461Z,6.91
2018-02-11T12:28:01.999Z,6.72
2018-02-11T12:30:29.591Z,6.75
2018-02-11T12:32:57.834Z,6.63
2018-02-11T12:35:26.152Z,6.73
2018-02-11T12:37:54.371Z,6.89
2018-02-11T12:40:21.938Z,6.90
2018-02-11T12:42:49.527Z,7.03
2018-02-11T12:45:17.486Z,7.23
2018-02-11T12:47:45.192Z,7.34
2018-02-11T12:50:12.774Z,7.34
2018-02-11T12:52:41.194Z,7.51
2018-02-11T12:55:09.211Z,7.73
2018-02-11T12:57:36.750Z,7.63
2018-02-11T13:00:04.291Z,7.75
2018-02-11T13:02:33.104Z,7.50
2018-02-11T13:05:02.424Z,7.53
2018-02-11T13:07:30.076Z,7.34
2018-02-11T13:09:58.506Z,7.36
2018-02-11T13:12:26.578Z,7.61
2018-02-11T13:14:54.383Z,7.67
2018-02-11T13:17:21.930Z,7.40
2018-02-11T13:19:51.040Z,7.31
2018-02-11T13:22:18.809Z,7.10
2018-02-11T13:24:46.568Z,7.13
2018-02-11T13:27:14.649Z,7.14
2018-02-11T13:29:42.231Z,7.34
2018-02-11T13:32:09.880Z,7.27
2018-02-11T13:34:38.411Z,7.17
2018-02-11T13:37:07.556Z,7.00
2018-02-11T13:39:35.142Z,6.93
2018-02-11T13:42:02.692Z,7.12
2018-02-11T13:44:30.278Z,6.98
2018-02-11T13:46:57.887Z,7.13
2018-02-11T13:49:25.420Z,7.00
2018-02-11T13:51:53.036Z,6.81
2018-02-11T13:54:20.661Z,6.67
2018-02-11T13:56:48.207Z,6.61
2018-02-11T13:59:16.702Z,6.64
2018-02-11T14:01:44.409Z,6.87
2018-02-11T14:04:12.798Z,6.88
2018-02-11T14:06:43.180Z,6.85
2018-02-11T14:09:10.748Z,6.91
2018-02-11T14:11:38.325Z,7.01
2018-02-11T14:14:05.930Z,7.08
2018-02-11T14:16:33.471Z,7.16
2018-02-11T14:19:01.675Z,7.15
2018-02-11T14:21:29.219Z,7.00
2018-02-11T14:23:57.820Z,6.90
2018-02-11T14:26:26.513Z,6.86
2018-02-11T14:28:54.114Z,6.80
2018-02-11T14:31:22.410Z,6.84
2018-02-11T14:33:50.760Z,6.90
2018-02-11T14:36:18.391Z,6.86
2018-02-11T14:38:47.708Z,6.92
2018-02-11T14:41:15.560Z,7.06
2018-02-11T14:43:44.890Z,7.11
2018-02-11T14:46:12.465Z,7.11
2018-02-11T14:48:41.386Z,7.20
2018-02-11T14:51:09.799Z,7.27
2018-02-11T14:53:38.072Z,7.25
2018-02-11T14:56:05.606Z,7.20
2018-02-11T14:58:33.181Z,7.14
2018-02-11T15:01:00.729Z,7.13
2018-02-11T15:03:28.308Z,7.12
2018-02-11T15:05:55.903Z,7.05
2018-02-11T15:08:24.288Z,7.08
2018-02-11T15:10:52.258Z,7.06
2018-02-11T15:13:19.843Z,6.99
2018-02-11T15:15:47.379Z,6.86
2018-02-11T15:18:16.100Z,6.91
2018-02-11T15:20:43.706Z,7.05
2018-02-11T15:23:11.851Z,7.04
2018-02-11T15:25:39.794Z,7.19
2018-02-11T15:28:07.901Z,7.11
2018-02-11T15:30:35.993Z,6.93
2018-02-11T15:33:03.570Z,7.04
2018-02-11T15:35:31.367Z,7.03
2018-02-11T15:38:00.163Z,6.98
2018-02-11T15:40:27.707Z,6.97
2018-02-11T15:42:56.739Z,7.05
2018-02-11T15:45:24.327Z,6.93
2018-02-11T15:47:53.632Z,6.88
2018-02-11T15:50:23.010Z,6.92
2018-02-11T15:52:50.593Z,7.08
2018-02-11T15:55:20.955Z,7.21
2018-02-11T15:57:48.538Z,7.04
2018-02-11T16:00:17.586Z,6.96
2018-02-11T16:02:46.665Z,7.07
2018-02-11T16:05:14.234Z,7.14
2018-02-11T16:07:42.188Z,7.02
2018-02-11T16:10:11.977Z,6.89
2018-02-11T16:12:39.564Z,6.75
2018-02-11T16:15:09.633Z,6.71
2018-02-11T16:17:37.203Z,6.77
2018-02-11T16:20:05.168Z,6.90
2018-02-11T16:22:33.430Z,6.94
2018-02-11T16:25:01.925Z,7.01
2018-02-11T16:27:30.000Z,6.98
2018-02-11T16:29:57.944Z,7.05
2018-02-11T16:32:26.624Z,7.02
2018-02-11T16:34:54.237Z,6.94
2018-02-11T16:37:22.185Z,6.91
2018-02-11T16:39:51.576Z,6.83
2018-02-11T16:42:20.533Z,6.84
2018-02-11T16:44:49.810Z,6.83
2018-02-11T16:47:17.404Z,6.86
2018-02-11T16:49:44.946Z,6.85
2018-02-11T16:52:12.514Z,6.86
2018-02-11T16:54:40.097Z,6.76
2018-02-11T16:57:07.678Z,6.66
2018-02-11T16:59:35.252Z,6.69
2018-02-11T17:02:02.837Z,6.69
2018-02-11T17:04:30.793Z,6.85
2018-02-11T17:06:58.378Z,6.82
2018-02-11T17:09:26.779Z,6.70
2018-02-11T17:11:54.501Z,6.86
2018-02-11T17:14:22.039Z,6.80
2018-02-11T17:16:50.207Z,6.79
2018-02-11T17:19:18.285Z,6.70
2018-02-11T17:21:46.311Z,6.77
2018-02-11T17:24:15.515Z,6.69
2018-02-11T17:26:43.614Z,7.07
2018-02-11T17:29:11.654Z,7.32
2018-02-11T17:31:39.621Z,7.44
2018-02-11T17:34:10.019Z,7.54
2018-02-11T17:36:38.648Z,7.68
2018-02-11T17:39:06.196Z,7.75
2018-02-11T17:41:35.998Z,7.87
2018-02-11T17:44:03.920Z,8.00
2018-02-11T17:46:31.460Z,7.99
2018-02-11T17:49:00.048Z,7.93
2018-02-11T17:51:27.647Z,7.91
2018-02-11T17:53:57.509Z,7.97
2018-02-11T17:56:25.098Z,7.85
2018-02-11T17:58:53.428Z,7.88
2018-02-11T18:01:21.012Z,7.86
2018-02-11T18:03:49.799Z,7.77
2018-02-11T18:06:17.375Z,7.92
2018-02-11T18:08:45.874Z,7.76
2018-02-11T18:11:14.283Z,7.51
2018-02-11T18:13:42.672Z,7.40
2018-02-11T18:16:10.236Z,7.43
2018-02-11T18:18:39.374Z,7.46
2018-02-11T18:21:08.527Z,7.46
2018-02-11T18:23:36.997Z,7.53
2018-02-11T18:26:04.808Z,7.48
2018-02-11T18:28:32.584Z,7.49
2018-02-11T18:31:00.136Z,7.51
2018-02-11T18:33:28.095Z,7.54
2018-02-11T18:35:55.844Z,7.57
2018-02-11T18:38:24.176Z,7.56
2018-02-11T18:40:52.323Z,7.50
2018-02-11T18:43:19.912Z,7.45
2018-02-11T18:45:48.844Z,7.39
2018-02-11T18:48:16.839Z,7.40
2018-02-11T18:50:45.117Z,7.40
2018-02-11T18:53:13.093Z,7.42
2018-02-11T18:55:41.110Z,7.37
2018-02-11T18:58:09.429Z,7.24
2018-02-11T19:00:38.082Z,7.23
2018-02-11T19:03:06.542Z,7.18
2018-02-11T19:05:34.287Z,7.12
2018-02-11T19:08:01.887Z,7.14
2018-02-11T19:10:29.474Z,7.16
2018-02-11T19:12:57.020Z,7.17
2018-02-11T19:15:24.617Z,7.06
2018-02-11T19:17:53.681Z,7.13
2018-02-11T19:20:21.551Z,7.15
2018-02-11T19:22:49.086Z,7.19
2018-02-11T19:25:18.113Z,7.19
2018-02-11T19:27:45.646Z,7.24
2018-02-11T19:30:14.014Z,7.18
2018-02-11T19:32:42.514Z,7.10
2018-02-11T19:35:10.102Z,7.11
2018-02-11T19:37:38.434Z,7.17
2018-02-11T19:40:06.924Z,7.11
2018-02-11T19:42:35.075Z,7.15
2018-02-11T19:45:04.333Z,7.23
2018-02-11T19:47:32.710Z,7.24
2018-02-11T19:50:00.257Z,7.19
2018-02-11T19:52:29.772Z,7.23
2018-02-11T19:54:57.651Z,7.18
2018-02-11T19:57:25.460Z,7.12
2018-02-11T19:59:53.059Z,6.99
2018-02-11T20:02:20.600Z,6.88
2018-02-11T20:04:48.963Z,6.83
2018-02-11T20:07:16.549Z,6.78
2018-02-11T20:09:45.919Z,6.70
2018-02-11T20:12:14.436Z,6.64
2018-02-11T20:14:42.855Z,6.64
2018-02-11T20:17:12.989Z,6.60
2018-02-11T20:19:40.594Z,6.52
2018-02-11T20:22:08.355Z,6.44
2018-02-11T20:24:36.296Z,6.48
2018-02-11T20:27:04.453Z,6.60
2018-02-11T20:29:32.040Z,6.37
2018-02-11T20:32:00.502Z,6.39
2018-02-11T20:34:28.216Z,6.57
2018-02-11T20:36:55.841Z,6.36
2018-02-11T20:39:24.292Z,6.18
2018-02-11T20:41:52.799Z,6.31
2018-02-11T20:44:20.550Z,6.37
2018-02-11T20:46:48.326Z,6.28
2018-02-11T20:49:16.225Z,6.20
2018-02-11T20:51:43.816Z,6.18
2018-02-11T20:54:11.482Z,6.15
2018-02-11T20:56:39.089Z,6.03
2018-02-11T20:59:07.456Z,5.97
2018-02-11T21:01:35.791Z,6.06
2018-02-11T21:04:04.138Z,6.00
2018-02-11T21:06:33.231Z,6.03
2018-02-11T21:09:00.838Z,6.17
2018-02-11T21:11:29.134Z,6.06
2018-02-11T21:13:58.271Z,6.16
2018-02-11T21:16:26.358Z,6.23
2018-02-11T21:18:54.798Z,6.23
2018-02-11T21:21:23.431Z,6.14
2018-02-11T21:23:51.265Z,5.98
2018-02-11T21:26:18.856Z,6.00
2018-02-11T21:28:47.014Z,6.05
2018-02-11T21:31:14.583Z,6.15
2018-02-11T21:33:42.182Z,6.14
2018-02-11T21:36:10.034Z,6.05
2018-02-11T21:38:37.566Z,6.16
2018-02-11T21:41:05.159Z,6.10
2018-02-11T21:43:33.301Z,6.06
2018-02-11T21:46:15.738Z,6.19
2018-02-11T21:48:58.976Z,6.19
2018-02-11T21:51:41.577Z,6.30
2018-02-11T21:54:24.300Z,6.45
2018-02-11T21:57:06.847Z,6.56
2018-02-11T21:59:50.205Z,6.70
2018-02-11T22:02:33.934Z,6.72
2018-02-11T22:05:16.962Z,6.62
2018-02-11T22:07:59.642Z,6.55
2018-02-11T22:10:42.881Z,6.49
2018-02-11T22:13:27.420Z,6.35
2018-02-11T22:16:11.694Z,6.26
2018-02-11T22:18:54.921Z,6.34
2018-02-11T22:21:37.465Z,6.31
2018-02-11T22:24:20.528Z,6.35
2018-02-11T22:26:48.073Z,6.26
2018-02-11T22:29:31.322Z,6.13
2018-02-11T22:32:14.069Z,6.16
2018-02-11T22:34:57.212Z,6.23
2018-02-11T22:37:39.503Z,6.04
2018-02-11T22:40:22.315Z,5.97
2018-02-11T22:43:04.951Z,6.05
2018-02-11T22:45:47.874Z,5.99
2018-02-11T22:48:30.665Z,5.89
2018-02-11T22:50:58.239Z,6.00
2018-02-11T22:53:25.823Z,6.29
2018-02-11T22:55:53.349Z,6.50
2018-02-11T22:58:21.183Z,6.72
2018-02-11T23:00:48.726Z,6.82
2018-02-11T23:03:16.310Z,6.76
2018-02-11T23:05:43.860Z,6.71
2018-02-11T23:08:11.993Z,6.73
2018-02-11T23:10:40.369Z,6.81
2018-02-11T23:13:07.913Z,6.85
2018-02-11T23:15:35.441Z,6.82
2018-02-11T23:18:03.641Z,6.84
2018-02-11T23:20:31.180Z,6.80
2018-02-11T23:22:58.709Z,6.74
2018-02-11T23:25:26.282Z,6.71
2018-02-11T23:27:54.079Z,6.66
2018-02-11T23:30:21.624Z,6.41
2018-02-11T23:32:49.197Z,6.15
2018-02-11T23:35:16.808Z,6.11
2018-02-11T23:37:44.389Z,5.95
2018-02-11T23:40:11.922Z,5.84
2018-02-11T23:42:39.502Z,5.98
2018-02-11T23:45:07.055Z,6.08
2018-02-11T23:47:34.655Z,6.04
2018-02-11T23:50:02.181Z,6.13
2018-02-11T23:52:29.970Z,6.25
2018-02-11T23:54:57.570Z,6.17
2018-02-11T23:57:25.108Z,6.05
2018-02-11T23:59:52.633Z,5.91
